This is the latest recevied weather packets stored in our database for station/object YS1AHL-23. If no packets are shown the sender has not sent any weather packets the latest 10 day(s).
| Time | Temp. | Humidity | Pressure | Rain* | Wind** | Luminosity | Snow |
|---|---|---|---|---|---|---|---|
| 1777370099 | 7.78° C | 70% | 1020 hPa | 0 mm | - | - | - |
| 1777369499 | 7.78° C | 70% | 1020 hPa | 0 mm | - | - | - |
| 1777368898 | 7.78° C | 70% | 1020 hPa | 0 mm | - | - | - |
| 1777368838 | 7.78° C | 70% | 1020 hPa | 0 mm | - | - | - |
| 1777368297 | 7.78° C | 70% | 1020 hPa | 0 mm | - | - | - |
| 1777368237 | 7.78° C | 70% | 1020 hPa | 0 mm | - | - | - |
| 1777367096 | 7.78° C | 70% | 1020 hPa | 0 mm | - | - | - |
| 1777366496 | 7.78° C | 69% | 1020 hPa | 0 mm | - | - | - |
| 1777365895 | 7.78° C | 68% | 1020 hPa | 0 mm | - | - | - |
| 1777365294 | 7.78° C | 68% | 1020 hPa | 0 mm | - | - | - |
| 1777365234 | 7.78° C | 68% | 1020 hPa | 0 mm | - | - | - |
| 1777364694 | 7.78° C | 66% | 1020 hPa | 0 mm | - | - | - |
| 1777364634 | 7.78° C | 66% | 1020 hPa | 0 mm | - | - | - |
| 1777364094 | 8.33° C | 62% | 1020 hPa | 0 mm | - | - | - |
| 1777364033 | 8.33° C | 62% | 1020 hPa | 0 mm | - | - | - |
| 1777363493 | 9.44° C | 54% | 1020 hPa | 0 mm | - | - | - |
| 1777363433 | 9.44° C | 54% | 1020 hPa | 0 mm | - | - | - |
| 1777362892 | 10° C | 54% | 1020 hPa | 0 mm | - | - | - |
| 1777362292 | 10.56° C | 54% | 1020 hPa | 0 mm | - | - | - |
| 1777362232 | 10.56° C | 54% | 1020 hPa | 0 mm | - | - | - |
| 1777361691 | 11.11° C | 54% | 1020 hPa | 0 mm | - | - | - |
| 1777361631 | 11.11° C | 54% | 1020 hPa | 0 mm | - | - | - |
| 1777361091 | 11.67° C | 54% | 1020 hPa | 0 mm | - | - | - |
| 1777361030 | 11.67° C | 54% | 1020 hPa | 0 mm | - | - | - |
| 1777360490 | 6.67° C | 62% | 1019 hPa | 0 mm | - | - | - |
* Rain latest hour (hover to see other rain measurements)
** Current wind speed in m/s (hover to see current wind gust speed)